Dripping Springs, TX (78620)

5:40 AM CDT on July 27, 2016 (GMT -0500)
Saddletree Ranch | | Change Station

Elev 1230 ft 30.28 °N, 98.07 °W | Updated 24 seconds ago

Scattered Clouds
Scattered Clouds
73.0 °F
Feels Like 73.0 °F
N
0.0
Wind Variable Wind from SSE
Gusts 0.0 mph

Today
High -- | Low -- °F
--% Chance of Precip.
Yesterday
High -- | Low -- °F
Precip. -- in
Pressure 29.98 in
Visibility 7.0 miles
Clouds Scattered Clouds 300 ft
Scattered Clouds 2100 ft
Dew Point 72 °F
Humidity 96%
Rainfall 0.00 in
Snow Depth Not available.
6:48 AM 8:29 PM
Last Quarter, 44% visible
METAR KRYW 271035Z AUTO 00000KT 7SM SCT003 SCT021 24/23 A2998 RMK AO2 T02400226
Pressure 29.98 in
Visibility 7.0 miles
Clouds Scattered Clouds 300 ft
Scattered Clouds 2100 ft
Dew Point 72 °F
Humidity 96%
Rainfall 0.00 in
Snow Depth Not available.
6:48 AM 8:29 PM
Last Quarter, 44% visible
METAR KRYW 271035Z AUTO 00000KT 7SM SCT003 SCT021 24/23 A2998 RMK AO2 T02400226

10-Day Weather Forecast

Almanac

Astronomy

Jul. 27, 2016 Rise Set
Actual Time
Civil Twilight
Nautical Twilight
Astronomical Twilight
Moon
Length of Visible Light
Length of Day
Tomorrow will be .
, % of the Moon is Illuminated

Today's Extremes

State Highs State Lows

Community

WunderPhotos

Upload Photos

1,927,825 photos uploaded!

WunderBlog® & News

Nearby

Air Quality

  Air Quality AQ Index Pollutant
Not available.

Snow Depth

Station Depth Elevation

Earthquake Activity

City Distance Mag. Time & Date
Minimum magnitude displayed is 2.5.

Coastal Water Temperatures

Place Temperature

Stations

Nearby Weather Stations

Station Location Temp. Windchill Dew Point Humidity Wind Precip. Elev Updated Type
                   

Watches & Warnings

There are currently no watches in effect.